Time;durP1;ratioP1;P1;durP2;ratioP2;P2;SDS_P1;SDS_P2;PMS_P1;PMS_P2;Temp;Humidity;BMP_temperature;BMP_pressure;BME280_temperature;BME280_humidity;BME280_pressure;Samples;Min_cycle;Max_cycle;Signal;HPM_P1;HPM_P2
2020/12/18 00:01:58;;;;;;;21.70;10.23;;;7.10;99.90;;;;;;5099308;28;20043;-60
2020/12/18 00:04:24;;;;;;;22.13;10.70;;;7.20;99.90;;;;;;5102027;27;20043;-60
2020/12/18 00:06:49;;;;;;;20.40;10.15;;;7.10;99.90;;;;;;5111320;28;20022;-60
2020/12/18 00:09:15;;;;;;;25.88;10.88;;;7.10;99.90;;;;;;5107301;27;20065;-60
2020/12/18 00:11:40;;;;;;;21.35;10.15;;;7.10;99.90;;;;;;5091050;28;20126;-60
2020/12/18 00:14:06;;;;;;;24.48;10.52;;;7.10;99.90;;;;;;5092967;28;20027;-60
2020/12/18 00:16:33;;;;;;;20.08;10.48;;;7.10;99.90;;;;;;5113270;27;20063;-60
2020/12/18 00:18:58;;;;;;;28.35;11.50;;;7.00;99.90;;;;;;5106434;27;20020;-59
2020/12/18 00:21:24;;;;;;;29.42;12.18;;;7.00;99.90;;;;;;5116544;27;20046;-59
2020/12/18 00:23:50;;;;;;;27.38;12.10;;;7.00;99.90;;;;;;5112150;27;20030;-60
2020/12/18 00:26:17;;;;;;;29.67;11.57;;;7.00;99.90;;;;;;5111614;28;20362;-59
2020/12/18 00:28:43;;;;;;;33.92;11.98;;;7.00;99.90;;;;;;5110521;27;20189;-60
2020/12/18 00:31:09;;;;;;;30.48;13.25;;;7.00;99.90;;;;;;5078988;28;20026;-60
2020/12/18 00:33:35;;;;;;;32.95;13.18;;;7.00;99.90;;;;;;5092691;28;20039;-61
2020/12/18 00:36:00;;;;;;;28.63;13.55;;;6.90;99.90;;;;;;5110719;28;20400;-60
2020/12/18 00:38:26;;;;;;;29.05;13.80;;;7.00;99.90;;;;;;5098519;28;20016;-59
2020/12/18 00:40:51;;;;;;;30.77;11.68;;;6.90;99.90;;;;;;5109264;28;20019;-60
2020/12/18 00:43:17;;;;;;;36.47;14.05;;;6.90;99.90;;;;;;5104932;28;20092;-60
2020/12/18 00:45:45;;;;;;;31.45;13.23;;;6.90;99.90;;;;;;5098002;28;20456;-60
2020/12/18 00:48:12;;;;;;;35.92;14.15;;;6.80;99.90;;;;;;5113241;28;20024;-60
2020/12/18 00:50:38;;;;;;;31.58;14.02;;;6.80;99.90;;;;;;5107149;28;20075;-61
2020/12/18 00:53:07;;;;;;;36.75;15.95;;;6.70;99.90;;;;;;5113328;28;20063;-61
2020/12/18 00:55:33;;;;;;;32.58;14.57;;;6.70;99.90;;;;;;5102039;28;20028;-61
2020/12/18 00:57:59;;;;;;;30.42;13.98;;;6.70;99.90;;;;;;5105006;28;20039;-61
2020/12/18 01:00:24;;;;;;;36.08;13.55;;;6.70;99.90;;;;;;5100811;28;20039;-61
2020/12/18 01:02:50;;;;;;;36.20;15.13;;;6.70;99.90;;;;;;5107257;28;20103;-61
2020/12/18 01:05:16;;;;;;;33.20;14.40;;;6.70;99.90;;;;;;5104455;28;20411;-60
2020/12/18 01:07:41;;;;;;;27.17;13.68;;;6.70;99.90;;;;;;5090434;28;20032;-60
2020/12/18 01:10:07;;;;;;;31.45;14.32;;;6.70;99.90;;;;;;5101868;27;20443;-59
2020/12/18 01:12:33;;;;;;;29.83;14.50;;;6.70;99.90;;;;;;5113585;27;20389;-60
2020/12/18 01:14:58;;;;;;;34.05;14.50;;;6.70;99.90;;;;;;5114502;27;20099;-59
2020/12/18 01:17:24;;;;;;;34.13;14.57;;;6.70;99.90;;;;;;5094437;28;20063;-61
2020/12/18 01:19:49;;;;;;;28.23;12.90;;;6.60;99.90;;;;;;5104288;28;20468;-60
2020/12/18 01:22:15;;;;;;;28.08;14.27;;;6.60;99.90;;;;;;5115916;27;20020;-59
2020/12/18 01:24:41;;;;;;;33.58;14.98;;;6.60;99.90;;;;;;5121231;27;20023;-59
2020/12/18 01:27:06;;;;;;;31.70;15.07;;;6.60;99.90;;;;;;5124058;27;20027;-60
2020/12/18 01:29:32;;;;;;;31.52;13.18;;;6.60;99.90;;;;;;5113516;27;20425;-61
2020/12/18 01:31:57;;;;;;;34.72;14.55;;;6.60;99.90;;;;;;5125688;27;20031;-60
2020/12/18 01:34:23;;;;;;;35.08;14.43;;;6.50;99.90;;;;;;5116699;27;20039;-62
2020/12/18 01:36:48;;;;;;;33.38;14.38;;;6.50;99.90;;;;;;5101453;28;20035;-62
2020/12/18 01:39:14;;;;;;;32.17;14.10;;;6.50;99.90;;;;;;5115789;27;20556;-60
2020/12/18 01:41:39;;;;;;;32.92;12.77;;;6.50;99.90;;;;;;5115590;27;20051;-60
2020/12/18 01:44:05;;;;;;;31.33;14.45;;;6.60;99.90;;;;;;5120093;27;20028;-59
2020/12/18 01:46:31;;;;;;;29.45;14.32;;;6.60;99.90;;;;;;5112473;27;20109;-59
2020/12/18 01:48:58;;;;;;;35.10;14.35;;;6.50;99.90;;;;;;5124073;27;20080;-60
2020/12/18 01:51:24;;;;;;;39.72;13.82;;;6.60;99.90;;;;;;5127702;27;20027;-60
2020/12/18 01:53:51;;;;;;;28.92;14.30;;;6.60;99.90;;;;;;5124192;27;20080;-60
2020/12/18 01:56:17;;;;;;;29.50;14.45;;;6.50;99.90;;;;;;5113734;27;20860;-61
2020/12/18 01:58:44;;;;;;;29.48;13.82;;;6.50;99.90;;;;;;5101573;27;20106;-61
2020/12/18 02:01:10;;;;;;;28.23;14.90;;;6.50;99.90;;;;;;5112178;27;20027;-59
2020/12/18 02:03:37;;;;;;;41.60;13.77;;;6.50;99.90;;;;;;5094481;28;20050;-59
2020/12/18 02:06:17;;;;;;;37.40;14.90;;;6.60;99.90;;;;;;5109730;27;20031;-59
2020/12/18 02:08:44;;;;;;;26.50;13.00;;;6.60;99.90;;;;;;5114892;27;20047;-61
2020/12/18 02:11:11;;;;;;;36.35;13.50;;;6.60;99.90;;;;;;5103966;28;20035;-58
2020/12/18 02:13:37;;;;;;;29.92;12.48;;;6.50;99.90;;;;;;5106807;27;20104;-58
2020/12/18 02:16:03;;;;;;;27.10;13.55;;;6.60;99.90;;;;;;5122149;28;20016;-59
2020/12/18 02:18:29;;;;;;;29.15;14.02;;;6.50;99.90;;;;;;5120038;27;20099;-58
2020/12/18 02:20:55;;;;;;;28.17;13.45;;;6.50;99.90;;;;;;5133048;28;20023;-59
2020/12/18 02:23:21;;;;;;;35.63;13.63;;;6.50;99.90;;;;;;5115723;28;20057;-60
2020/12/18 02:26:10;;;;;;;37.65;13.13;;;6.50;99.90;;;;;;5135766;27;20099;-60
2020/12/18 02:28:40;;;;;;;37.65;13.73;;;6.50;99.90;;;;;;5122470;28;20039;-59
2020/12/18 02:31:07;;;;;;;35.08;13.73;;;6.50;99.90;;;;;;5120972;27;20028;-59
2020/12/18 02:33:33;;;;;;;36.35;14.52;;;6.40;99.90;;;;;;5110263;27;20110;-59
2020/12/18 02:36:00;;;;;;;36.90;15.10;;;6.40;99.90;;;;;;5110530;28;20016;-59
2020/12/18 02:38:26;;;;;;;33.83;14.27;;;6.40;99.90;;;;;;5118997;27;20039;-59
2020/12/18 02:40:53;;;;;;;38.65;13.32;;;6.50;99.90;;;;;;5084313;27;20687;-60
2020/12/18 02:43:19;;;;;;;39.13;14.40;;;6.50;99.90;;;;;;5094091;28;20362;-59
2020/12/18 02:45:44;;;;;;;31.90;12.02;;;6.50;99.90;;;;;;5110628;27;20084;-60
2020/12/18 02:48:10;;;;;;;39.42;12.77;;;6.50;99.90;;;;;;5112050;27;20472;-59
2020/12/18 02:50:36;;;;;;;33.15;13.52;;;6.50;99.90;;;;;;5113134;28;20385;-60
2020/12/18 02:53:13;;;;;;;37.45;14.50;;;6.50;99.90;;;;;;5096976;28;20024;-60
2020/12/18 02:55:39;;;;;;;34.53;13.25;;;6.50;99.90;;;;;;5108213;27;20032;-58
2020/12/18 02:58:04;;;;;;;37.63;13.43;;;6.50;99.90;;;;;;5111468;28;20035;-60
2020/12/18 03:00:30;;;;;;;39.55;13.95;;;6.50;99.90;;;;;;5114087;27;20032;-60
2020/12/18 03:02:55;;;;;;;33.67;13.43;;;6.50;99.90;;;;;;5111627;27;20035;-60
2020/12/18 03:05:21;;;;;;;42.22;13.77;;;6.50;99.90;;;;;;5109375;28;20520;-60
2020/12/18 03:07:46;;;;;;;33.83;13.55;;;6.50;99.90;;;;;;5103119;28;20023;-61
2020/12/18 03:10:12;;;;;;;46.05;13.20;;;6.40;99.90;;;;;;5093556;28;20059;-59
2020/12/18 03:12:37;;;;;;;37.95;13.93;;;6.50;99.90;;;;;;5113881;27;20059;-60
2020/12/18 03:15:03;;;;;;;40.80;13.13;;;6.50;99.90;;;;;;5105938;27;20054;-60
2020/12/18 03:17:28;;;;;;;32.33;11.95;;;6.50;99.90;;;;;;5107734;27;20040;-59
2020/12/18 03:19:54;;;;;;;35.65;12.55;;;6.40;99.90;;;;;;5086907;27;20075;-60
2020/12/18 03:22:19;;;;;;;33.55;11.80;;;6.50;99.90;;;;;;5108103;27;20020;-60
2020/12/18 03:24:45;;;;;;;35.55;13.18;;;6.50;99.90;;;;;;5105724;27;20102;-60
2020/12/18 03:27:10;;;;;;;38.15;11.90;;;6.50;99.90;;;;;;5111528;27;20031;-60
2020/12/18 03:29:36;;;;;;;32.08;10.75;;;6.50;99.90;;;;;;5114503;27;20016;-60
2020/12/18 03:32:02;;;;;;;31.10;11.75;;;6.50;99.90;;;;;;5111034;28;20062;-60
2020/12/18 03:34:27;;;;;;;28.83;12.07;;;6.50;99.90;;;;;;5103251;28;20035;-59
2020/12/18 03:36:53;;;;;;;38.42;13.10;;;6.50;99.90;;;;;;5106479;27;20106;-60
2020/12/18 03:39:18;;;;;;;29.70;10.70;;;6.50;99.90;;;;;;5101183;27;20055;-60
2020/12/18 03:41:44;;;;;;;28.77;10.82;;;6.50;99.90;;;;;;5114903;27;20126;-60
2020/12/18 03:44:09;;;;;;;36.95;12.05;;;6.50;99.90;;;;;;5120365;27;20031;-62
2020/12/18 03:46:35;;;;;;;37.40;12.63;;;6.50;99.90;;;;;;5103101;27;20023;-61
2020/12/18 03:49:00;;;;;;;39.78;11.85;;;6.40;99.90;;;;;;5110783;28;20489;-60
2020/12/18 03:51:26;;;;;;;29.48;11.90;;;6.40;99.90;;;;;;5111239;27;20072;-63
2020/12/18 03:53:51;;;;;;;31.60;10.88;;;6.50;99.90;;;;;;5106972;28;20052;-60
2020/12/18 03:56:17;;;;;;;26.13;10.73;;;6.50;99.90;;;;;;5091994;28;20038;-60
2020/12/18 03:58:42;;;;;;;34.50;11.45;;;6.50;99.90;;;;;;5105962;27;20019;-60
2020/12/18 04:01:08;;;;;;;33.10;12.02;;;6.50;99.90;;;;;;5095067;28;20024;-60
2020/12/18 04:03:33;;;;;;;35.58;12.73;;;6.50;99.90;;;;;;5091753;28;20039;-59
2020/12/18 04:05:59;;;;;;;37.72;12.07;;;6.40;99.90;;;;;;5085953;28;20016;-59
2020/12/18 04:08:25;;;;;;;29.83;11.05;;;6.50;99.90;;;;;;5112913;27;20044;-60
2020/12/18 04:10:50;;;;;;;31.02;9.93;;;6.40;99.90;;;;;;5097394;27;20373;-60
2020/12/18 04:13:15;;;;;;;34.22;11.68;;;6.50;99.90;;;;;;5113622;28;20036;-60
2020/12/18 04:15:42;;;;;;;36.70;12.02;;;6.40;99.90;;;;;;5109370;28;20092;-60
2020/12/18 04:18:09;;;;;;;33.83;10.43;;;6.50;99.90;;;;;;5118550;27;20110;-60
2020/12/18 04:20:35;;;;;;;32.70;11.38;;;6.50;99.90;;;;;;5111951;27;20035;-60
2020/12/18 04:23:01;;;;;;;23.98;10.50;;;6.50;99.90;;;;;;5100568;28;20251;-61
2020/12/18 04:25:26;;;;;;;31.10;10.77;;;6.50;99.90;;;;;;5101495;28;20028;-62
2020/12/18 04:27:52;;;;;;;34.40;10.50;;;6.50;99.90;;;;;;5115336;27;20405;-60
2020/12/18 04:30:18;;;;;;;27.25;10.05;;;6.60;99.90;;;;;;5099184;28;20095;-60
2020/12/18 04:32:43;;;;;;;25.05;9.90;;;6.60;99.90;;;;;;5109257;28;20027;-60
2020/12/18 04:35:09;;;;;;;22.00;9.48;;;6.50;99.90;;;;;;5110809;28;20043;-60
2020/12/18 04:37:34;;;;;;;35.88;10.68;;;6.60;99.90;;;;;;5109993;28;20024;-60
2020/12/18 04:40:00;;;;;;;27.10;9.77;;;6.60;99.90;;;;;;5108604;28;20494;-60
2020/12/18 04:42:25;;;;;;;24.23;9.52;;;6.60;99.90;;;;;;5116208;27;20032;-60
2020/12/18 04:44:52;;;;;;;24.40;9.45;;;6.60;99.90;;;;;;5112675;28;20105;-60
2020/12/18 04:47:19;;;;;;;32.53;10.20;;;6.70;99.90;;;;;;5125953;28;20083;-60
2020/12/18 04:49:45;;;;;;;25.80;9.35;;;6.70;99.90;;;;;;5108587;28;20407;-60
2020/12/18 04:52:12;;;;;;;22.23;9.07;;;6.70;99.90;;;;;;5110781;28;20034;-60
2020/12/18 04:54:42;;;;;;;25.38;8.93;;;6.70;99.90;;;;;;5111009;28;20380;-60
2020/12/18 04:57:08;;;;;;;26.35;9.90;;;6.60;99.90;;;;;;5111831;28;20020;-60
2020/12/18 04:59:35;;;;;;;25.25;8.57;;;6.60;99.90;;;;;;5114108;28;20420;-59
2020/12/18 05:02:01;;;;;;;20.85;8.93;;;6.60;99.90;;;;;;5114246;28;20523;-60
2020/12/18 05:04:30;;;;;;;16.50;7.97;;;6.60;99.90;;;;;;5108826;28;20035;-60
2020/12/18 05:06:56;;;;;;;22.92;8.85;;;6.60;99.90;;;;;;5099708;28;20051;-60
2020/12/18 05:09:24;;;;;;;29.58;8.88;;;6.60;99.90;;;;;;5103374;28;20461;-61
2020/12/18 05:11:51;;;;;;;20.42;7.88;;;6.60;99.90;;;;;;5105300;28;20032;-61
2020/12/18 05:14:17;;;;;;;32.63;8.82;;;6.60;99.90;;;;;;5074314;28;20024;-61
2020/12/18 05:16:43;;;;;;;20.83;9.00;;;6.60;99.90;;;;;;5094470;28;20032;-60
2020/12/18 05:19:08;;;;;;;25.83;8.35;;;6.60;99.90;;;;;;5106373;28;20028;-60
2020/12/18 05:21:37;;;;;;;19.02;8.07;;;6.60;99.90;;;;;;5110549;28;20024;-60
2020/12/18 05:24:03;;;;;;;22.48;7.32;;;6.60;99.90;;;;;;5112572;28;20049;-60
2020/12/18 05:26:30;;;;;;;20.60;7.50;;;6.60;99.90;;;;;;5110979;28;20031;-59
2020/12/18 05:29:08;;;;;;;21.98;7.53;;;6.70;99.90;;;;;;5106301;28;20085;-60
2020/12/18 05:31:34;;;;;;;25.00;8.05;;;6.70;99.90;;;;;;5107012;28;20039;-59
2020/12/18 05:34:01;;;;;;;19.92;8.00;;;6.60;99.90;;;;;;5119746;28;20058;-60
2020/12/18 05:36:27;;;;;;;23.27;8.45;;;6.70;99.90;;;;;;5090343;28;20023;-59
2020/12/18 05:38:53;;;;;;;20.23;8.88;;;6.70;99.90;;;;;;5104442;28;20089;-60
2020/12/18 05:41:24;;;;;;;26.17;8.10;;;6.70;99.90;;;;;;5106962;28;20040;-60
2020/12/18 05:43:49;;;;;;;25.17;7.50;;;6.70;99.90;;;;;;5111674;28;20024;-62
2020/12/18 05:46:15;;;;;;;22.45;7.13;;;6.70;99.90;;;;;;5113933;28;20032;-59
2020/12/18 05:48:43;;;;;;;19.88;7.50;;;6.70;99.90;;;;;;5130458;28;20312;-59
2020/12/18 05:51:10;;;;;;;23.13;8.07;;;6.70;99.90;;;;;;5119344;28;20544;-60
2020/12/18 05:53:36;;;;;;;17.85;7.57;;;6.70;99.90;;;;;;5111171;28;20106;-60
2020/12/18 05:56:01;;;;;;;19.33;7.22;;;6.70;99.90;;;;;;5110751;28;20577;-59
2020/12/18 05:58:27;;;;;;;18.13;7.90;;;6.70;99.90;;;;;;5119981;27;21150;-61
2020/12/18 06:00:52;;;;;;;16.70;6.88;;;6.70;99.90;;;;;;5111023;28;20058;-60
2020/12/18 06:03:22;;;;;;;22.80;7.57;;;6.70;99.90;;;;;;5101288;27;20031;-59
2020/12/18 06:05:53;;;;;;;22.88;7.18;;;6.70;99.90;;;;;;5110915;28;20036;-60
2020/12/18 06:08:19;;;;;;;23.40;7.20;;;6.70;99.90;;;;;;5106915;27;20738;-60
2020/12/18 06:10:45;;;;;;;16.65;7.28;;;6.70;99.90;;;;;;5111069;28;20016;-61
2020/12/18 06:13:11;;;;;;;21.92;7.55;;;6.80;99.90;;;;;;5098764;27;20445;-61
2020/12/18 06:15:37;;;;;;;16.15;8.02;;;6.90;99.90;;;;;;5105914;28;20059;-60
2020/12/18 06:18:04;;;;;;;23.40;7.32;;;6.90;99.90;;;;;;5108035;27;20034;-61
2020/12/18 06:20:35;;;;;;;22.92;8.02;;;6.90;99.90;;;;;;5108513;27;20110;-61
2020/12/18 06:23:03;;;;;;;27.05;8.68;;;6.90;99.90;;;;;;5105605;28;20024;-61
2020/12/18 06:25:29;;;;;;;19.55;8.93;;;6.90;99.90;;;;;;5107971;27;20050;-60
2020/12/18 06:28:02;;;;;;;21.90;10.07;;;7.00;99.90;;;;;;5103957;27;20055;-59
2020/12/18 06:30:28;;;;;;;23.98;9.38;;;7.00;99.90;;;;;;5094511;28;20105;-60
2020/12/18 06:32:54;;;;;;;25.70;11.48;;;7.10;99.90;;;;;;5082256;28;20036;-60
2020/12/18 06:35:29;;;;;;;32.13;11.20;;;7.10;99.90;;;;;;5104401;28;20484;-60
2020/12/18 06:37:55;;;;;;;33.53;12.45;;;7.10;99.90;;;;;;5108829;27;20067;-60
2020/12/18 06:40:32;;;;;;;25.95;11.05;;;7.20;99.90;;;;;;5107282;28;20379;-60
2020/12/18 06:42:58;;;;;;;35.40;13.48;;;7.20;99.90;;;;;;5101765;27;20126;-60
2020/12/18 06:45:25;;;;;;;28.77;13.73;;;7.20;99.90;;;;;;5104953;28;20028;-60
2020/12/18 06:47:52;;;;;;;26.10;13.13;;;7.30;99.90;;;;;;5080405;28;20020;-60
2020/12/18 06:50:18;;;;;;;30.00;14.05;;;7.30;99.90;;;;;;5095478;28;20023;-60
2020/12/18 06:52:47;;;;;;;25.52;14.50;;;7.40;99.90;;;;;;5102111;28;20096;-59
2020/12/18 06:55:25;;;;;;;34.45;15.13;;;7.40;99.90;;;;;;5108303;28;20024;-59
2020/12/18 06:58:05;;;;;;;29.83;15.18;;;7.40;99.90;;;;;;5111606;28;20023;-61
2020/12/18 07:00:35;;;;;;;30.60;15.13;;;7.40;99.90;;;;;;5108381;27;20028;-60
2020/12/18 07:03:00;;;;;;;37.38;16.15;;;7.50;99.90;;;;;;5100195;28;20060;-60
2020/12/18 07:05:36;;;;;;;33.60;15.75;;;7.50;99.90;;;;;;5103501;28;20084;-62
2020/12/18 07:08:10;;;;;;;31.02;15.32;;;7.60;99.90;;;;;;5102974;28;20047;-62
2020/12/18 07:10:39;;;;;;;37.53;15.95;;;7.60;99.90;;;;;;5105860;28;20024;-61
2020/12/18 07:13:07;;;;;;;33.95;16.77;;;7.60;99.90;;;;;;5108658;28;20035;-60
2020/12/18 07:15:45;;;;;;;32.38;15.90;;;7.60;99.90;;;;;;5108821;28;20069;-60
2020/12/18 07:18:35;;;;;;;28.13;16.67;;;7.70;99.90;;;;;;5093160;28;20103;-60
2020/12/18 07:21:05;;;;;;;33.17;16.38;;;7.70;99.90;;;;;;5106492;28;20076;-60
2020/12/18 07:23:32;;;;;;;38.60;17.52;;;7.70;99.90;;;;;;5074744;28;20039;-61
2020/12/18 07:25:58;;;;;;;30.10;17.05;;;7.70;99.90;;;;;;5094572;28;20377;-60
2020/12/18 07:28:26;;;;;;;30.52;17.48;;;7.80;99.90;;;;;;5109438;28;20031;-60
2020/12/18 07:30:52;;;;;;;37.05;18.15;;;7.80;99.90;;;;;;5112590;28;20015;-56
2020/12/18 07:33:19;;;;;;;35.30;18.08;;;7.80;99.90;;;;;;5124892;28;20020;-60
2020/12/18 07:35:53;;;;;;;36.80;18.60;;;7.80;99.90;;;;;;5108792;28;20032;-59
2020/12/18 07:38:27;;;;;;;38.35;19.45;;;7.80;99.90;;;;;;5103351;28;20028;-60
2020/12/18 07:41:04;;;;;;;33.20;17.23;;;7.80;99.90;;;;;;5111342;28;20020;-59
2020/12/18 07:43:32;;;;;;;29.38;17.08;;;7.90;99.90;;;;;;5112670;28;20119;-60
2020/12/18 07:46:01;;;;;;;32.28;18.30;;;7.90;99.90;;;;;;5106823;28;20027;-59
2020/12/18 07:48:35;;;;;;;35.80;17.17;;;7.90;99.90;;;;;;5108505;28;20098;-59
2020/12/18 07:51:05;;;;;;;33.42;18.13;;;7.90;99.90;;;;;;5097098;28;20104;-59
2020/12/18 07:53:32;;;;;;;35.22;17.92;;;8.00;99.90;;;;;;5099210;28;20015;-59
2020/12/18 07:56:00;;;;;;;32.33;17.83;;;8.00;99.90;;;;;;5101210;28;20031;-59
2020/12/18 07:58:26;;;;;;;32.83;17.38;;;8.00;99.90;;;;;;5096583;28;20019;-59
2020/12/18 08:01:12;;;;;;;31.77;18.38;;;8.10;99.90;;;;;;5093758;28;20026;-59
2020/12/18 08:03:39;;;;;;;24.67;15.57;;;8.00;99.90;;;;;;5094284;28;20409;-60
2020/12/18 08:06:12;;;;;;;28.25;15.45;;;8.00;99.90;;;;;;5101326;28;20036;-60
2020/12/18 08:08:37;;;;;;;26.05;13.90;;;8.10;99.90;;;;;;5102514;28;20055;-59
2020/12/18 08:11:03;;;;;;;26.27;12.88;;;8.10;99.90;;;;;;5104369;28;20120;-61
2020/12/18 08:13:31;;;;;;;21.73;11.55;;;8.10;99.90;;;;;;5091326;28;20024;-60
2020/12/18 08:16:10;;;;;;;27.83;12.63;;;8.20;99.90;;;;;;5106872;28;20050;-61
2020/12/18 08:18:37;;;;;;;22.45;10.98;;;8.20;99.90;;;;;;5108687;28;20027;-62
2020/12/18 08:21:04;;;;;;;24.33;10.25;;;8.30;99.90;;;;;;5108818;28;20020;-59
2020/12/18 08:23:32;;;;;;;16.80;9.95;;;8.40;99.90;;;;;;5097590;28;20385;-62
2020/12/18 08:25:59;;;;;;;14.93;9.30;;;8.40;99.90;;;;;;5100660;28;20115;-60
2020/12/18 08:28:27;;;;;;;19.75;9.45;;;8.40;99.90;;;;;;5100711;28;20027;-61
2020/12/18 08:30:54;;;;;;;20.60;8.85;;;8.50;99.90;;;;;;5097068;28;20020;-61
2020/12/18 08:33:20;;;;;;;14.00;8.48;;;8.50;99.90;;;;;;5094941;28;20032;-59
2020/12/18 08:35:47;;;;;;;23.15;10.40;;;8.50;99.90;;;;;;5105267;28;20028;-59
2020/12/18 08:38:13;;;;;;;24.25;12.27;;;8.50;99.90;;;;;;5094378;28;20047;-59
2020/12/18 08:40:45;;;;;;;28.08;13.10;;;8.50;99.90;;;;;;5101407;28;20035;-60
2020/12/18 08:43:10;;;;;;;32.75;14.70;;;8.50;99.90;;;;;;5087077;28;20065;-60
2020/12/18 08:45:45;;;;;;;25.00;13.27;;;8.40;99.90;;;;;;5101755;28;20023;-60
2020/12/18 08:48:11;;;;;;;26.00;14.05;;;8.40;99.90;;;;;;5094715;28;20016;-60
2020/12/18 08:50:40;;;;;;;24.20;13.75;;;8.40;99.90;;;;;;5092111;28;20028;-61
2020/12/18 08:53:13;;;;;;;23.20;13.02;;;8.50;99.90;;;;;;5089884;28;20032;-60
2020/12/18 08:55:40;;;;;;;17.60;11.70;;;8.50;99.90;;;;;;5098329;28;20035;-62
2020/12/18 08:58:14;;;;;;;23.50;11.98;;;8.60;99.90;;;;;;5107629;28;20055;-61
2020/12/18 09:00:40;;;;;;;20.20;11.88;;;8.60;99.90;;;;;;5104243;28;20388;-59
2020/12/18 09:03:05;;;;;;;18.15;11.35;;;8.60;99.90;;;;;;5103790;28;20020;-59
2020/12/18 09:05:33;;;;;;;21.08;12.32;;;8.70;99.90;;;;;;5095052;28;20016;-60
2020/12/18 09:08:28;;;;;;;18.17;12.13;;;8.70;99.90;;;;;;5111145;28;20026;-60
2020/12/18 09:10:56;;;;;;;27.77;12.02;;;8.70;99.90;;;;;;5083454;28;20028;-60
2020/12/18 09:13:29;;;;;;;25.67;12.48;;;8.80;99.90;;;;;;5108626;28;20073;-59
2020/12/18 09:15:59;;;;;;;15.90;10.23;;;8.80;99.90;;;;;;5123620;28;20039;-60
2020/12/18 09:18:26;;;;;;;24.48;11.32;;;8.80;99.90;;;;;;5111873;28;20085;-61
2020/12/18 09:20:55;;;;;;;19.60;10.15;;;8.90;99.90;;;;;;5105460;28;20044;-60
2020/12/18 09:23:31;;;;;;;13.50;9.35;;;8.90;99.90;;;;;;5112188;28;20077;-61
2020/12/18 09:25:58;;;;;;;17.50;8.05;;;8.90;99.90;;;;;;5110608;28;20119;-61
2020/12/18 09:28:24;;;;;;;19.83;10.10;;;8.90;99.90;;;;;;5100873;28;20024;-61
2020/12/18 09:30:57;;;;;;;16.67;7.95;;;9.00;99.90;;;;;;5106842;27;20110;-61
2020/12/18 09:33:26;;;;;;;16.17;8.15;;;9.00;99.90;;;;;;5111067;28;20400;-60
2020/12/18 09:36:00;;;;;;;18.02;7.53;;;9.00;99.90;;;;;;5102453;28;20024;-59
2020/12/18 09:38:31;;;;;;;18.80;7.70;;;9.10;99.90;;;;;;5113779;28;20388;-62
2020/12/18 09:40:58;;;;;;;20.35;7.88;;;9.10;99.90;;;;;;5110086;27;20028;-61
2020/12/18 09:43:24;;;;;;;10.98;7.03;;;9.10;99.90;;;;;;5098342;28;20056;-60
2020/12/18 09:45:50;;;;;;;14.57;6.45;;;9.20;99.90;;;;;;5101811;28;20051;-60
2020/12/18 09:48:17;;;;;;;14.77;5.72;;;9.20;99.90;;;;;;5110411;28;20353;-61
2020/12/18 09:50:42;;;;;;;17.63;5.97;;;9.20;99.90;;;;;;5112341;28;20020;-61
2020/12/18 09:53:08;;;;;;;14.40;6.30;;;9.30;99.90;;;;;;5113957;28;20034;-62
2020/12/18 09:55:34;;;;;;;17.58;6.07;;;9.30;99.90;;;;;;5103251;28;20080;-62
2020/12/18 09:58:04;;;;;;;15.20;5.30;;;9.30;99.90;;;;;;5098757;28;20039;-63
2020/12/18 10:00:29;;;;;;;11.13;4.68;;;9.40;99.90;;;;;;5092424;28;20370;-59
2020/12/18 10:02:56;;;;;;;13.75;5.20;;;9.40;99.90;;;;;;5098388;28;20057;-61
2020/12/18 10:05:22;;;;;;;14.75;5.25;;;9.50;99.90;;;;;;5112165;28;20493;-60
2020/12/18 10:07:48;;;;;;;11.35;4.80;;;9.50;99.90;;;;;;5100332;28;20073;-61
2020/12/18 10:10:14;;;;;;;14.30;4.57;;;9.60;99.90;;;;;;5114515;28;20027;-59
2020/12/18 10:12:39;;;;;;;14.95;5.22;;;9.60;99.90;;;;;;5110639;28;20032;-61
2020/12/18 10:15:05;;;;;;;14.15;5.20;;;9.70;99.90;;;;;;5108095;28;20053;-60
2020/12/18 10:17:30;;;;;;;18.90;4.68;;;9.70;99.90;;;;;;5096797;28;20496;-61
2020/12/18 10:19:56;;;;;;;15.05;3.88;;;9.80;99.90;;;;;;5113024;28;20023;-60
2020/12/18 10:22:21;;;;;;;21.50;4.90;;;9.90;99.90;;;;;;5110711;28;20073;-60
2020/12/18 10:24:47;;;;;;;14.65;4.88;;;9.90;99.90;;;;;;5106636;28;20469;-59
2020/12/18 10:27:13;;;;;;;8.98;4.50;;;9.90;99.90;;;;;;5105980;28;20472;-63
2020/12/18 10:29:39;;;;;;;15.00;4.50;;;10.00;99.90;;;;;;5111528;28;20011;-61
2020/12/18 10:32:05;;;;;;;14.93;5.03;;;10.00;99.90;;;;;;5109622;28;20118;-60
2020/12/18 10:34:30;;;;;;;11.75;4.70;;;10.10;99.90;;;;;;5107172;28;20112;-61
2020/12/18 10:36:57;;;;;;;16.40;4.75;;;10.20;99.90;;;;;;5101236;28;20035;-60
2020/12/18 10:39:23;;;;;;;12.30;4.07;;;10.20;99.90;;;;;;5095522;28;20031;-60
2020/12/18 10:41:50;;;;;;;16.52;4.22;;;10.20;99.90;;;;;;5112750;27;20627;-60
2020/12/18 10:44:16;;;;;;;13.45;3.80;;;10.20;99.90;;;;;;5101394;28;20031;-60
2020/12/18 10:46:43;;;;;;;12.32;4.80;;;10.20;99.90;;;;;;5096729;28;20011;-60
2020/12/18 10:49:09;;;;;;;16.38;4.43;;;10.20;99.90;;;;;;5114241;28;20028;-60
2020/12/18 10:51:38;;;;;;;16.15;4.38;;;10.30;99.90;;;;;;5095832;28;20504;-60
2020/12/18 10:54:04;;;;;;;18.63;3.75;;;10.40;99.90;;;;;;5095100;28;20078;-62
2020/12/18 10:56:30;;;;;;;13.98;3.22;;;10.40;99.90;;;;;;5091713;28;20432;-62
2020/12/18 10:58:55;;;;;;;13.32;2.95;;;10.40;99.90;;;;;;5107554;28;20016;-59
2020/12/18 11:01:21;;;;;;;11.13;3.08;;;10.40;99.90;;;;;;5093188;28;20024;-61
2020/12/18 11:03:46;;;;;;;13.60;3.22;;;10.50;99.90;;;;;;5090633;28;20074;-60
2020/12/18 11:06:12;;;;;;;12.85;3.05;;;10.60;99.90;;;;;;5108938;28;20027;-59
2020/12/18 11:08:38;;;;;;;9.63;3.30;;;10.70;99.90;;;;;;5098974;28;20028;-60
2020/12/18 11:11:03;;;;;;;9.88;3.33;;;10.70;99.90;;;;;;5094601;28;20481;-62
2020/12/18 11:13:29;;;;;;;9.10;3.13;;;10.80;99.90;;;;;;5103012;28;20028;-61
2020/12/18 11:15:54;;;;;;;4.95;2.22;;;10.80;99.90;;;;;;5098309;28;20027;-60
2020/12/18 11:18:20;;;;;;;9.57;2.80;;;10.90;99.90;;;;;;5094018;28;20077;-61
2020/12/18 11:20:46;;;;;;;11.07;2.83;;;11.00;99.90;;;;;;5086690;28;20055;-58
2020/12/18 11:23:11;;;;;;;12.98;3.05;;;11.10;99.90;;;;;;5093850;28;20036;-60
2020/12/18 11:25:37;;;;;;;5.53;2.58;;;11.10;99.90;;;;;;5103837;28;20024;-60
2020/12/18 11:28:02;;;;;;;11.55;2.50;;;11.20;99.90;;;;;;5106491;28;20112;-60
2020/12/18 11:30:28;;;;;;;10.65;2.75;;;11.20;99.90;;;;;;5091257;28;20032;-59
2020/12/18 11:32:53;;;;;;;15.40;2.70;;;11.30;99.90;;;;;;5091779;28;20020;-61
2020/12/18 11:35:19;;;;;;;12.38;2.50;;;11.50;99.90;;;;;;5103602;28;20028;-61
2020/12/18 11:37:44;;;;;;;10.95;2.60;;;12.00;99.90;;;;;;5102205;28;20043;-60
2020/12/18 11:40:10;;;;;;;10.23;2.53;;;12.40;99.90;;;;;;5096935;28;20032;-60
2020/12/18 11:42:36;;;;;;;12.35;2.33;;;12.50;99.90;;;;;;5126386;22;20060;-66
2020/12/18 11:45:03;;;;;;;9.00;1.95;;;12.70;99.90;;;;;;5079904;28;20020;-68
2020/12/18 11:47:29;;;;;;;19.35;2.08;;;12.70;99.90;;;;;;5116536;28;20028;-67
2020/12/18 11:49:55;;;;;;;8.05;2.60;;;12.60;99.90;;;;;;5084110;28;20031;-64
2020/12/18 11:52:20;;;;;;;5.07;1.92;;;12.70;99.90;;;;;;5119861;27;20090;-66
2020/12/18 11:54:46;;;;;;;6.72;1.88;;;12.70;99.90;;;;;;5120371;27;20038;-65
2020/12/18 11:57:11;;;;;;;9.38;2.10;;;12.80;99.90;;;;;;5108528;28;20047;-68
2020/12/18 11:59:37;;;;;;;9.05;2.72;;;12.90;99.90;;;;;;5111122;28;20038;-66
2020/12/18 12:02:04;;;;;;;7.43;2.00;;;12.90;99.90;;;;;;5110320;28;20031;-67
2020/12/18 12:04:29;;;;;;;9.40;2.10;;;13.10;99.90;;;;;;5092514;28;20102;-68
2020/12/18 12:06:54;;;;;;;7.25;2.15;;;13.20;99.90;;;;;;5114823;27;20103;-70
2020/12/18 12:09:21;;;;;;;7.18;2.10;;;13.30;99.90;;;;;;5112764;28;20487;-65
2020/12/18 12:11:47;;;;;;;9.02;1.95;;;13.30;99.90;;;;;;5084731;28;20072;-66
2020/12/18 12:14:13;;;;;;;9.90;2.08;;;13.30;99.90;;;;;;5115478;28;20012;-65
2020/12/18 12:16:38;;;;;;;9.13;1.90;;;13.50;99.90;;;;;;5103759;28;20020;-65
2020/12/18 12:19:05;;;;;;;7.63;2.10;;;13.30;99.90;;;;;;5105176;27;20031;-66
2020/12/18 12:21:32;;;;;;;5.43;1.75;;;13.00;99.90;;;;;;5105251;28;20020;-65
2020/12/18 12:23:58;;;;;;;9.95;1.90;;;13.20;99.90;;;;;;5110834;28;20027;-66
2020/12/18 12:26:24;;;;;;;7.10;2.20;;;13.20;99.90;;;;;;5112866;28;20039;-66
2020/12/18 12:28:49;;;;;;;4.63;1.83;;;13.40;99.90;;;;;;5113985;27;20435;-67
2020/12/18 12:31:15;;;;;;;8.82;2.40;;;13.50;99.90;;;;;;5084400;28;20447;-67
2020/12/18 12:33:40;;;;;;;6.45;1.77;;;13.50;99.90;;;;;;5104237;28;20027;-65
2020/12/18 12:36:06;;;;;;;12.15;2.47;;;13.40;99.90;;;;;;5103624;28;20032;-67
2020/12/18 12:38:31;;;;;;;8.82;1.67;;;13.30;99.90;;;;;;5110592;28;20557;-65
2020/12/18 12:40:57;;;;;;;6.05;1.67;;;13.30;99.90;;;;;;5110669;28;20098;-65